< < Back
Terminal Aerodrome Forecast


Current Version              Previous Versions:   1  2  3  4  5  6  7  8  9  

Terminal Aerodrome Forecast

337
FTUS42 KJAX 271120
TAFSSI
TAF
KSSI 271120Z 2712/2812 12006KT P6SM SCT020 SCT250
      TEMPO 2712/2715 BKN020
     FM271600 11012KT P6SM SCT030 SCT250
     FM280300 11004KT P6SM SCT015 SCT250=



Latest METAR

N/A

USA.gov is the U.S. government's official web portal to all federal, state and local government web resources and services.